createdAt,value
2023-02-06T00:01:52.162Z,8.10
2023-02-06T00:04:20.378Z,7.33
2023-02-06T00:06:48.163Z,7.47
2023-02-06T00:09:16.157Z,7.10
2023-02-06T00:11:43.935Z,6.87
2023-02-06T00:14:11.718Z,9.70
2023-02-06T00:16:39.386Z,7.93
2023-02-06T00:19:07.487Z,6.87
2023-02-06T00:21:35.235Z,7.87
2023-02-06T00:24:04.374Z,9.30
2023-02-06T00:26:34.705Z,6.93
2023-02-06T00:29:02.723Z,8.73
2023-02-06T00:31:30.537Z,6.80
2023-02-06T00:33:58.292Z,10.10
2023-02-06T00:36:27.448Z,8.07
2023-02-06T00:38:55.290Z,7.60
2023-02-06T00:41:23.028Z,8.10
2023-02-06T00:43:52.337Z,6.83
2023-02-06T00:46:20.430Z,7.10
2023-02-06T00:48:48.474Z,7.30
2023-02-06T00:51:16.375Z,6.93
2023-02-06T00:53:44.167Z,7.80
2023-02-06T00:56:11.882Z,7.10
2023-02-06T00:58:39.724Z,7.60
2023-02-06T01:01:07.570Z,5.23
2023-02-06T01:03:35.533Z,6.10
2023-02-06T01:06:05.006Z,6.97
2023-02-06T01:08:32.752Z,6.00
2023-02-06T01:11:00.551Z,8.20
2023-02-06T01:13:28.379Z,7.70
2023-02-06T01:15:56.167Z,6.70
2023-02-06T01:18:23.934Z,9.30
2023-02-06T01:20:51.661Z,9.23
2023-02-06T01:23:19.375Z,10.03
2023-02-06T01:25:47.212Z,8.93
2023-02-06T01:28:16.641Z,9.50
2023-02-06T01:30:44.541Z,10.13
2023-02-06T01:33:12.350Z,9.50
2023-02-06T01:35:40.068Z,8.73
2023-02-06T01:38:08.602Z,8.83
2023-02-06T01:40:36.398Z,8.70
2023-02-06T01:43:04.177Z,10.10
2023-02-06T01:45:47.038Z,10.40
2023-02-06T01:48:43.613Z,8.40
2023-02-06T01:51:24.978Z,11.30
2023-02-06T01:54:02.719Z,10.13
2023-02-06T01:56:50.062Z,10.17
2023-02-06T01:59:18.284Z,9.97
2023-02-06T02:01:47.286Z,9.70
2023-02-06T02:04:24.099Z,12.10
2023-02-06T02:07:20.817Z,10.00
2023-02-06T02:09:49.245Z,9.63
2023-02-06T02:12:19.444Z,8.93
2023-02-06T02:14:52.819Z,7.83
2023-02-06T02:18:44.699Z,8.03
2023-02-06T02:22:10.056Z,10.23
2023-02-06T02:25:41.993Z,9.70
2023-02-06T02:29:32.814Z,10.53
2023-02-06T02:33:00.942Z,10.07
2023-02-06T02:36:07.586Z,9.80
2023-02-06T02:39:47.424Z,9.37
2023-02-06T02:42:37.663Z,9.63
2023-02-06T02:45:46.598Z,8.70
2023-02-06T02:48:46.089Z,8.80
2023-02-06T02:51:14.754Z,10.07
2023-02-06T02:53:43.092Z,9.30
2023-02-06T02:56:26.818Z,8.40
2023-02-06T02:59:25.601Z,10.90
2023-02-06T03:02:08.141Z,8.93
2023-02-06T03:05:00.429Z,7.80
2023-02-06T03:07:54.031Z,9.00
2023-02-06T03:11:15.390Z,10.00
2023-02-06T03:14:11.397Z,10.50
2023-02-06T03:16:57.561Z,7.73
2023-02-06T03:19:39.812Z,9.00
2023-02-06T03:22:08.104Z,8.47
2023-02-06T03:24:40.538Z,9.97
2023-02-06T03:27:17.054Z,8.63
2023-02-06T03:29:52.970Z,9.73
2023-02-06T03:32:36.952Z,8.43
2023-02-06T03:35:29.636Z,8.63
2023-02-06T03:37:58.115Z,8.80
2023-02-06T03:40:29.147Z,9.47
2023-02-06T03:43:04.893Z,13.40
2023-02-06T03:45:45.616Z,11.13
2023-02-06T03:48:42.032Z,12.20
2023-02-06T03:51:26.322Z,10.60
2023-02-06T03:54:01.401Z,12.20
2023-02-06T03:56:48.992Z,12.63
2023-02-06T03:59:17.068Z,13.30
2023-02-06T04:01:57.343Z,13.00
2023-02-06T04:04:39.270Z,14.63
2023-02-06T04:07:29.980Z,15.17
2023-02-06T04:09:57.817Z,12.27
2023-02-06T04:12:26.539Z,13.63
2023-02-06T04:14:54.353Z,12.53
2023-02-06T04:17:40.662Z,14.30
2023-02-06T04:20:13.865Z,13.60
2023-02-06T04:22:42.697Z,15.57
2023-02-06T04:25:11.751Z,12.03
2023-02-06T04:27:39.664Z,13.27
2023-02-06T04:30:09.329Z,15.03
2023-02-06T04:32:36.985Z,15.30
2023-02-06T04:35:05.747Z,13.00
2023-02-06T04:37:34.037Z,12.90
2023-02-06T04:40:01.688Z,12.63
2023-02-06T04:42:30.318Z,14.20
2023-02-06T04:44:58.195Z,14.23
2023-02-06T04:47:26.186Z,12.30
2023-02-06T04:49:54.197Z,13.07
2023-02-06T04:52:22.130Z,13.10
2023-02-06T04:54:49.872Z,13.20
2023-02-06T04:57:17.654Z,15.67
2023-02-06T04:59:45.578Z,14.10
2023-02-06T05:02:13.462Z,16.27
2023-02-06T05:04:41.858Z,15.03
2023-02-06T05:07:09.612Z,18.97
2023-02-06T05:09:37.629Z,12.47
2023-02-06T05:12:06.010Z,16.37
2023-02-06T05:14:33.873Z,19.87
2023-02-06T05:17:01.732Z,13.37
2023-02-06T05:19:29.695Z,12.13
2023-02-06T05:22:01.009Z,12.67
2023-02-06T05:24:29.307Z,14.10
2023-02-06T05:26:58.492Z,15.17
2023-02-06T05:29:27.393Z,14.10
2023-02-06T05:31:55.470Z,15.70
2023-02-06T05:34:23.307Z,15.50
2023-02-06T05:36:51.121Z,17.60
2023-02-06T05:39:19.440Z,16.60
2023-02-06T05:41:47.431Z,17.70
2023-02-06T05:44:15.107Z,15.00
2023-02-06T05:46:42.923Z,14.23
2023-02-06T05:49:11.130Z,13.03
2023-02-06T05:51:39.143Z,13.23
2023-02-06T05:54:07.012Z,12.17
2023-02-06T05:56:35.097Z,12.30
2023-02-06T05:59:03.298Z,14.33
2023-02-06T06:01:31.284Z,13.40
2023-02-06T06:03:59.394Z,13.50
2023-02-06T06:06:27.610Z,15.03
2023-02-06T06:08:55.524Z,13.77
2023-02-06T06:11:23.436Z,12.70
2023-02-06T06:13:51.166Z,13.80
2023-02-06T06:16:19.238Z,10.63
2023-02-06T06:18:47.380Z,12.77
2023-02-06T06:21:15.444Z,12.43
2023-02-06T06:23:43.473Z,14.23
2023-02-06T06:26:11.408Z,11.40
2023-02-06T06:28:40.137Z,10.30
2023-02-06T06:31:12.769Z,15.20
2023-02-06T06:33:41.811Z,14.87
2023-02-06T06:36:14.469Z,14.10
2023-02-06T06:38:42.834Z,12.70
2023-02-06T06:41:11.137Z,10.80
2023-02-06T06:43:39.809Z,13.03
2023-02-06T06:46:07.860Z,16.07
2023-02-06T06:48:38.251Z,14.50
2023-02-06T06:51:07.439Z,13.70
2023-02-06T06:53:39.857Z,11.27
2023-02-06T06:56:13.587Z,15.03
2023-02-06T06:58:42.730Z,11.77
2023-02-06T07:01:10.704Z,9.50
2023-02-06T07:03:38.781Z,14.13
2023-02-06T07:06:07.107Z,13.07
2023-02-06T07:08:36.098Z,13.90
2023-02-06T07:11:04.946Z,11.30
2023-02-06T07:13:32.642Z,10.10
2023-02-06T07:16:00.438Z,11.57
2023-02-06T07:18:28.168Z,12.50
2023-02-06T07:20:56.024Z,11.80
2023-02-06T07:23:23.696Z,12.60
2023-02-06T07:25:51.688Z,13.27
2023-02-06T07:28:19.756Z,13.63
2023-02-06T07:30:47.480Z,14.03
2023-02-06T07:33:15.354Z,14.10
2023-02-06T07:35:44.016Z,13.30
2023-02-06T07:38:11.761Z,12.60
2023-02-06T07:40:45.183Z,13.27
2023-02-06T07:43:14.710Z,11.80
2023-02-06T07:45:42.807Z,12.90
2023-02-06T07:48:11.534Z,13.20
2023-02-06T07:50:39.786Z,13.20
2023-02-06T07:53:08.017Z,16.43
2023-02-06T07:55:39.007Z,15.33
2023-02-06T07:58:07.186Z,14.10
2023-02-06T08:00:35.156Z,16.60
2023-02-06T08:03:04.801Z,15.23
2023-02-06T08:05:36.336Z,16.97
2023-02-06T08:08:07.945Z,15.80
2023-02-06T08:10:39.942Z,15.73
2023-02-06T08:13:08.092Z,12.80
2023-02-06T08:15:36.022Z,13.93
2023-02-06T08:18:04.418Z,14.80
2023-02-06T08:20:32.601Z,11.50
2023-02-06T08:23:00.252Z,11.30
2023-02-06T08:25:28.213Z,11.20
2023-02-06T08:27:58.176Z,12.37
2023-02-06T08:30:26.298Z,12.67
2023-02-06T08:32:54.094Z,12.07
2023-02-06T08:35:22.099Z,13.80
2023-02-06T08:37:50.114Z,15.13
2023-02-06T08:40:19.297Z,16.53
2023-02-06T08:42:51.731Z,23.17
2023-02-06T08:45:20.096Z,19.47
2023-02-06T08:47:48.100Z,20.37
2023-02-06T08:50:16.698Z,16.83
2023-02-06T08:52:45.414Z,16.10
2023-02-06T08:55:13.586Z,18.40
2023-02-06T08:57:41.234Z,21.07
2023-02-06T09:00:10.596Z,19.90
2023-02-06T09:02:38.460Z,20.90
2023-02-06T09:05:06.703Z,18.40
2023-02-06T09:07:34.504Z,19.60
2023-02-06T09:10:02.139Z,16.70
2023-02-06T09:12:30.030Z,16.63
2023-02-06T09:14:57.947Z,16.67
2023-02-06T09:17:25.806Z,17.83
2023-02-06T09:19:53.643Z,18.40
2023-02-06T09:22:21.298Z,17.53
2023-02-06T09:24:49.088Z,18.00
2023-02-06T09:27:16.936Z,19.57
2023-02-06T09:29:45.136Z,24.80
2023-02-06T09:32:13.445Z,23.80
2023-02-06T09:34:42.866Z,22.33
2023-02-06T09:37:10.817Z,24.87
2023-02-06T09:39:38.721Z,24.10
2023-02-06T09:42:37.474Z,23.00
2023-02-06T09:45:29.619Z,26.17
2023-02-06T09:48:20.679Z,27.07
2023-02-06T09:51:53.479Z,25.40
2023-02-06T09:54:59.108Z,25.60
2023-02-06T09:57:57.686Z,26.27
2023-02-06T10:01:26.726Z,27.80
2023-02-06T10:04:37.248Z,25.73
2023-02-06T10:07:57.378Z,24.30
2023-02-06T10:11:11.112Z,23.20
2023-02-06T10:14:41.087Z,24.03
2023-02-06T10:17:38.077Z,24.30
2023-02-06T10:20:39.342Z,25.00
2023-02-06T10:23:58.557Z,25.23
2023-02-06T10:26:28.797Z,24.37
2023-02-06T10:29:00.451Z,24.10
2023-02-06T10:32:34.955Z,24.30
2023-02-06T10:36:13.513Z,22.77
2023-02-06T10:39:30.119Z,23.50
2023-02-06T10:42:41.170Z,23.40
2023-02-06T10:45:42.618Z,24.30
2023-02-06T10:48:48.195Z,20.70
2023-02-06T10:51:36.104Z,24.23
2023-02-06T10:54:50.769Z,23.10
2023-02-06T10:57:25.367Z,21.80
2023-02-06T11:00:04.277Z,22.37
2023-02-06T11:03:06.695Z,21.20
2023-02-06T11:05:36.991Z,21.70
2023-02-06T11:08:36.134Z,21.37
2023-02-06T11:11:38.335Z,22.07
2023-02-06T11:14:28.805Z,19.03
2023-02-06T11:17:02.758Z,19.83
2023-02-06T11:19:44.528Z,19.63
2023-02-06T11:22:26.123Z,18.37
2023-02-06T11:25:34.372Z,19.70
2023-02-06T11:28:02.535Z,20.30
2023-02-06T11:30:53.126Z,18.40
2023-02-06T11:33:50.816Z,20.10
2023-02-06T11:36:31.828Z,21.47
2023-02-06T11:39:37.684Z,22.77
2023-02-06T11:42:25.666Z,28.70
2023-02-06T11:44:53.981Z,27.87
2023-02-06T11:47:38.110Z,32.47
2023-02-06T11:50:34.419Z,31.70
2023-02-06T11:53:19.611Z,32.63
2023-02-06T11:56:19.247Z,32.80
2023-02-06T11:59:02.596Z,30.20
2023-02-06T12:01:48.221Z,30.63
2023-02-06T12:04:31.535Z,32.17
2023-02-06T12:07:43.242Z,31.63
2023-02-06T12:10:23.647Z,31.37
2023-02-06T12:13:08.231Z,29.87
2023-02-06T12:16:02.327Z,29.30
2023-02-06T12:18:40.785Z,30.63
2023-02-06T12:21:44.957Z,28.60
2023-02-06T12:24:42.787Z,27.23
2023-02-06T12:27:39.057Z,33.70
2023-02-06T12:30:45.798Z,28.10
2023-02-06T12:33:23.627Z,28.67
2023-02-06T12:36:17.553Z,26.77
2023-02-06T12:39:20.211Z,27.77
2023-02-06T12:42:18.987Z,28.90
2023-02-06T12:45:41.805Z,26.30
2023-02-06T12:48:56.450Z,26.53
2023-02-06T12:51:59.647Z,27.37
2023-02-06T12:55:18.167Z,26.00
2023-02-06T12:57:46.979Z,22.90
2023-02-06T13:01:30.624Z,28.60
2023-02-06T13:04:16.203Z,28.60
2023-02-06T13:06:59.381Z,29.00
2023-02-06T13:09:52.981Z,31.10
2023-02-06T13:12:28.463Z,27.23
2023-02-06T13:15:07.144Z,27.67
2023-02-06T13:17:45.014Z,26.87
2023-02-06T13:20:24.569Z,23.30
2023-02-06T13:23:13.973Z,26.80
2023-02-06T13:25:42.018Z,23.93
2023-02-06T13:28:21.911Z,24.33
2023-02-06T13:31:09.147Z,23.23
2023-02-06T13:34:01.788Z,24.20
2023-02-06T13:36:51.764Z,20.77
2023-02-06T13:39:32.660Z,19.77
2023-02-06T13:42:46.570Z,17.63
2023-02-06T13:45:37.559Z,14.47
2023-02-06T13:48:46.892Z,15.47
2023-02-06T13:51:58.186Z,14.83
2023-02-06T13:55:21.300Z,14.03
2023-02-06T13:58:50.919Z,12.37
2023-02-06T14:01:29.602Z,12.90
2023-02-06T14:04:01.072Z,13.00
2023-02-06T14:06:59.100Z,13.77
2023-02-06T14:10:28.643Z,12.80
2023-02-06T14:13:57.716Z,12.80
2023-02-06T14:17:57.490Z,10.80
2023-02-06T14:21:39.060Z,11.67
2023-02-06T14:25:13.810Z,10.53
2023-02-06T14:28:08.559Z,11.57
2023-02-06T14:31:40.367Z,9.90
2023-02-06T14:34:39.101Z,11.00
2023-02-06T14:37:36.321Z,10.30
2023-02-06T14:40:28.219Z,8.73
2023-02-06T14:43:03.377Z,11.80
2023-02-06T14:45:56.914Z,10.37
2023-02-06T14:48:52.267Z,10.77
2023-02-06T14:51:37.457Z,9.33
2023-02-06T14:54:41.786Z,12.63
2023-02-06T14:57:39.299Z,11.00
2023-02-06T15:00:21.118Z,12.27
2023-02-06T15:03:23.209Z,14.70
2023-02-06T15:06:11.393Z,12.57
2023-02-06T15:08:51.269Z,11.13
2023-02-06T15:11:32.871Z,15.10
2023-02-06T15:14:21.427Z,12.60
2023-02-06T15:16:52.458Z,14.83
2023-02-06T15:19:28.378Z,13.97
2023-02-06T15:22:15.764Z,15.70
2023-02-06T15:25:49.442Z,12.20
2023-02-06T15:28:29.227Z,14.70
2023-02-06T15:31:01.889Z,15.27
2023-02-06T15:33:35.030Z,15.23
2023-02-06T15:36:05.325Z,11.53
2023-02-06T15:38:35.054Z,13.87
2023-02-06T15:41:12.007Z,12.57
2023-02-06T15:43:44.526Z,13.20
2023-02-06T15:46:14.043Z,13.87
2023-02-06T15:48:51.345Z,15.70
2023-02-06T15:51:38.645Z,11.80
2023-02-06T15:54:27.177Z,13.50
2023-02-06T15:57:43.881Z,13.23
2023-02-06T16:00:32.026Z,11.20
2023-02-06T16:03:08.853Z,10.77
2023-02-06T16:05:43.159Z,9.20
2023-02-06T16:08:35.552Z,9.93
2023-02-06T16:11:29.992Z,8.50
2023-02-06T16:14:00.022Z,9.10
2023-02-06T16:16:29.466Z,9.90
2023-02-06T16:18:59.353Z,9.20
2023-02-06T16:21:35.111Z,8.97
2023-02-06T16:24:17.832Z,8.33
2023-02-06T16:26:54.573Z,7.57
2023-02-06T16:29:33.145Z,7.60
2023-02-06T16:32:19.109Z,7.20
2023-02-06T16:34:48.774Z,7.50
2023-02-06T16:37:30.447Z,9.87
2023-02-06T16:39:59.872Z,7.73
2023-02-06T16:42:41.438Z,8.50
2023-02-06T16:45:28.494Z,8.63
2023-02-06T16:47:57.939Z,8.63
2023-02-06T16:50:26.760Z,7.70
2023-02-06T16:53:13.777Z,10.93
2023-02-06T16:55:48.409Z,8.20
2023-02-06T16:58:24.819Z,8.23
2023-02-06T17:00:53.232Z,10.17
2023-02-06T17:03:22.502Z,13.03
2023-02-06T17:05:53.090Z,15.40
2023-02-06T17:08:26.830Z,10.70
2023-02-06T17:10:55.026Z,8.60
2023-02-06T17:13:25.755Z,9.67
2023-02-06T17:15:53.959Z,9.03
2023-02-06T17:18:24.300Z,7.70
2023-02-06T17:20:57.053Z,8.67
2023-02-06T17:23:25.271Z,10.00
2023-02-06T17:25:53.101Z,11.53
2023-02-06T17:28:22.406Z,12.37
2023-02-06T17:30:51.073Z,10.90
2023-02-06T17:33:19.362Z,12.87
2023-02-06T17:35:49.070Z,11.20
2023-02-06T17:38:16.951Z,11.60
2023-02-06T17:40:45.419Z,11.17
2023-02-06T17:43:13.458Z,9.40
2023-02-06T17:45:42.977Z,12.30
2023-02-06T17:48:11.553Z,12.30
2023-02-06T17:50:42.648Z,12.30
2023-02-06T17:53:14.833Z,14.13
2023-02-06T17:55:45.329Z,10.93
2023-02-06T17:58:13.696Z,12.20
2023-02-06T18:00:41.877Z,12.03
2023-02-06T18:03:09.869Z,11.00
2023-02-06T18:05:39.310Z,10.53
2023-02-06T18:08:07.119Z,12.40
2023-02-06T18:10:36.673Z,11.63
2023-02-06T18:13:04.643Z,11.57
2023-02-06T18:15:32.726Z,12.00
2023-02-06T18:18:00.741Z,14.80
2023-02-06T18:20:28.391Z,24.63
2023-02-06T18:22:56.339Z,16.53
2023-02-06T18:25:24.096Z,15.03
2023-02-06T18:27:51.852Z,11.83
2023-02-06T18:30:20.290Z,14.47
2023-02-06T18:32:48.331Z,15.00
2023-02-06T18:35:17.297Z,15.17
2023-02-06T18:37:45.454Z,16.10
2023-02-06T18:40:14.654Z,14.60
2023-02-06T18:42:52.276Z,14.03
2023-02-06T18:45:31.931Z,16.50
2023-02-06T18:48:01.939Z,14.90
2023-02-06T18:50:31.012Z,16.10
2023-02-06T18:52:59.215Z,14.00
2023-02-06T18:55:27.784Z,14.53
2023-02-06T18:57:55.754Z,14.10
2023-02-06T19:00:24.847Z,14.93
2023-02-06T19:02:53.659Z,15.10
2023-02-06T19:05:22.414Z,24.23
2023-02-06T19:07:54.087Z,16.40
2023-02-06T19:10:23.964Z,15.40
2023-02-06T19:12:52.230Z,15.30
2023-02-06T19:15:20.518Z,15.27
2023-02-06T19:17:50.472Z,12.43
2023-02-06T19:20:21.261Z,13.60
2023-02-06T19:22:49.903Z,13.57
2023-02-06T19:25:19.339Z,13.77
2023-02-06T19:27:47.547Z,13.97
2023-02-06T19:30:15.989Z,14.80
2023-02-06T19:32:44.759Z,15.03
2023-02-06T19:35:12.710Z,14.67
2023-02-06T19:37:40.964Z,14.57
2023-02-06T19:40:10.446Z,15.20
2023-02-06T19:42:40.344Z,14.40
2023-02-06T19:45:08.965Z,15.20
2023-02-06T19:47:37.306Z,17.30
2023-02-06T19:50:06.835Z,17.70
2023-02-06T19:52:35.437Z,16.50
2023-02-06T19:55:04.531Z,14.70
2023-02-06T19:57:32.630Z,16.87
2023-02-06T20:00:01.531Z,16.03
2023-02-06T20:02:30.115Z,15.50
2023-02-06T20:05:02.081Z,15.03
2023-02-06T20:07:33.711Z,18.53
2023-02-06T20:10:02.514Z,16.80
2023-02-06T20:12:31.727Z,18.13
2023-02-06T20:15:02.817Z,16.67
2023-02-06T20:17:31.332Z,18.83
2023-02-06T20:20:00.373Z,18.20
2023-02-06T20:22:31.516Z,18.40
2023-02-06T20:24:59.754Z,18.20
2023-02-06T20:27:28.849Z,20.53
2023-02-06T20:29:57.035Z,18.50
2023-02-06T20:32:25.277Z,16.00
2023-02-06T20:34:53.980Z,19.30
2023-02-06T20:37:22.479Z,18.00
2023-02-06T20:39:50.937Z,16.90
2023-02-06T20:42:22.505Z,17.13
2023-02-06T20:44:51.899Z,20.87
2023-02-06T20:47:20.227Z,19.80
2023-02-06T20:49:48.183Z,20.63
2023-02-06T20:52:16.648Z,21.77
2023-02-06T20:54:46.265Z,23.40
2023-02-06T20:57:15.611Z,24.20
2023-02-06T20:59:43.747Z,29.37
2023-02-06T21:02:11.991Z,34.63
2023-02-06T21:04:40.077Z,31.50
2023-02-06T21:07:08.230Z,22.67
2023-02-06T21:09:36.709Z,23.57
2023-02-06T21:12:05.505Z,21.47
2023-02-06T21:14:34.368Z,18.93
2023-02-06T21:17:02.816Z,17.90
2023-02-06T21:19:30.912Z,17.80
2023-02-06T21:21:59.238Z,17.13
2023-02-06T21:24:27.556Z,18.50
2023-02-06T21:26:55.925Z,18.17
2023-02-06T21:29:24.068Z,18.23
2023-02-06T21:32:07.164Z,18.77
2023-02-06T21:34:40.978Z,16.90
2023-02-06T21:37:09.749Z,16.30
2023-02-06T21:39:41.259Z,18.47
2023-02-06T21:42:11.595Z,18.17
2023-02-06T21:44:39.672Z,17.17
2023-02-06T21:47:10.064Z,17.77
2023-02-06T21:49:38.429Z,16.20
2023-02-06T21:52:06.361Z,17.07
2023-02-06T21:54:34.403Z,18.80
2023-02-06T21:57:02.495Z,16.23
2023-02-06T21:59:34.067Z,16.80
2023-02-06T22:02:02.190Z,17.03
2023-02-06T22:04:30.467Z,17.23
2023-02-06T22:06:59.017Z,15.87
2023-02-06T22:09:27.007Z,16.77
2023-02-06T22:11:55.879Z,14.20
2023-02-06T22:14:23.699Z,15.93
2023-02-06T22:16:51.609Z,16.60
2023-02-06T22:19:19.622Z,15.80
2023-02-06T22:21:47.589Z,15.77
2023-02-06T22:24:15.314Z,15.33
2023-02-06T22:26:44.554Z,15.20
2023-02-06T22:29:17.543Z,14.47
2023-02-06T22:31:46.744Z,15.87
2023-02-06T22:34:21.667Z,13.77
2023-02-06T22:36:51.403Z,17.43
2023-02-06T22:39:20.068Z,16.20
2023-02-06T22:41:48.945Z,17.13
2023-02-06T22:44:20.750Z,17.47
2023-02-06T22:46:53.876Z,17.07
2023-02-06T22:49:24.630Z,16.03
2023-02-06T22:51:53.397Z,15.80
2023-02-06T22:54:21.437Z,16.20
2023-02-06T22:56:49.508Z,17.47
2023-02-06T22:59:26.359Z,18.37
2023-02-06T23:01:58.735Z,16.40
2023-02-06T23:04:34.775Z,19.87
2023-02-06T23:07:03.349Z,16.20
2023-02-06T23:09:38.065Z,17.20
2023-02-06T23:12:07.441Z,17.20
2023-02-06T23:14:35.525Z,17.17
2023-02-06T23:17:04.423Z,16.27
2023-02-06T23:19:32.424Z,18.80
2023-02-06T23:22:00.450Z,17.53
2023-02-06T23:24:28.508Z,20.63
2023-02-06T23:26:56.597Z,18.80
2023-02-06T23:29:25.111Z,19.10
2023-02-06T23:31:53.184Z,20.43
2023-02-06T23:34:24.543Z,19.90
2023-02-06T23:36:53.452Z,20.50
2023-02-06T23:39:21.675Z,19.30
2023-02-06T23:41:49.691Z,18.23
2023-02-06T23:44:17.615Z,20.43
2023-02-06T23:46:45.426Z,19.23
2023-02-06T23:49:13.516Z,19.33
2023-02-06T23:51:41.389Z,20.20
2023-02-06T23:54:10.174Z,20.03
2023-02-06T23:56:39.036Z,20.13
2023-02-06T23:59:07.391Z,21.97
